createdAt,value
2018-06-28T00:00:20.346Z,20.80
2018-06-28T00:01:22.642Z,20.70
2018-06-28T00:02:25.141Z,20.70
2018-06-28T00:03:28.216Z,20.60
2018-06-28T00:04:30.562Z,20.60
2018-06-28T00:05:39.744Z,20.60
2018-06-28T00:06:42.107Z,20.60
2018-06-28T00:07:44.523Z,20.60
2018-06-28T00:08:47.099Z,20.60
2018-06-28T00:09:49.545Z,20.50
2018-06-28T00:10:51.928Z,20.50
2018-06-28T00:11:54.546Z,20.50
2018-06-28T00:12:56.868Z,20.40
2018-06-28T00:13:59.288Z,20.40
2018-06-28T00:15:01.665Z,20.40
2018-06-28T00:16:04.188Z,20.50
2018-06-28T00:18:08.966Z,20.30
2018-06-28T00:19:11.414Z,20.30
2018-06-28T00:20:13.842Z,20.30
2018-06-28T00:21:16.222Z,20.30
2018-06-28T00:22:18.678Z,20.30
2018-06-28T00:23:20.934Z,20.30
2018-06-28T00:24:23.446Z,20.40
2018-06-28T00:25:25.780Z,20.30
2018-06-28T00:26:28.127Z,20.20
2018-06-28T00:27:30.510Z,20.20
2018-06-28T00:28:32.900Z,20.20
2018-06-28T00:29:35.466Z,20.20
2018-06-28T00:30:37.738Z,20.20
2018-06-28T00:31:40.471Z,20.10
2018-06-28T00:32:42.878Z,20.10
2018-06-28T00:34:47.530Z,20.10
2018-06-28T00:35:49.803Z,20.00
2018-06-28T00:36:52.332Z,20.00
2018-06-28T00:38:57.139Z,19.90
2018-06-28T00:39:59.658Z,19.90
2018-06-28T00:41:01.940Z,19.90
2018-06-28T00:42:04.455Z,19.90
2018-06-28T00:44:09.558Z,19.90
2018-06-28T00:45:12.179Z,19.90
2018-06-28T00:46:14.438Z,20.00
2018-06-28T00:47:16.846Z,19.90
2018-06-28T00:48:19.164Z,19.90
2018-06-28T00:49:21.990Z,19.90
2018-06-28T00:50:24.277Z,19.90
2018-06-28T00:52:28.950Z,19.90
2018-06-28T00:53:31.242Z,19.90
2018-06-28T00:54:33.530Z,19.90
2018-06-28T00:55:35.867Z,19.90
2018-06-28T00:56:38.458Z,19.90
2018-06-28T00:57:40.991Z,19.90
2018-06-28T00:58:43.519Z,19.80
2018-06-28T00:59:45.852Z,19.90
2018-06-28T01:01:50.890Z,19.80
2018-06-28T01:02:53.261Z,19.80
2018-06-28T01:03:55.686Z,19.80
2018-06-28T01:04:57.963Z,19.70
2018-06-28T01:06:00.415Z,19.70
2018-06-28T01:07:02.738Z,19.80
2018-06-28T01:08:05.217Z,19.70
2018-06-28T01:09:09.315Z,19.70
2018-06-28T01:10:11.838Z,19.60
2018-06-28T01:11:14.185Z,19.60
2018-06-28T01:12:16.756Z,19.60
2018-06-28T01:13:19.050Z,19.60
2018-06-28T01:15:20.861Z,19.60
2018-06-28T01:16:23.131Z,19.60
2018-06-28T01:17:25.646Z,19.60
2018-06-28T01:18:28.024Z,19.50
2018-06-28T01:19:30.466Z,19.50
2018-06-28T01:20:32.929Z,19.50
2018-06-28T01:21:35.259Z,19.40
2018-06-28T01:22:37.716Z,19.40
2018-06-28T01:23:39.991Z,19.50
2018-06-28T01:24:42.491Z,19.50
2018-06-28T01:25:44.967Z,19.40
2018-06-28T01:26:47.245Z,19.40
2018-06-28T01:27:49.849Z,19.40
2018-06-28T01:28:52.153Z,19.40
2018-06-28T01:29:54.455Z,19.30
2018-06-28T01:30:56.839Z,19.30
2018-06-28T01:31:59.263Z,19.30
2018-06-28T01:33:01.826Z,19.30
2018-06-28T01:34:04.319Z,19.30
2018-06-28T01:35:06.795Z,19.30
2018-06-28T01:36:09.280Z,19.30
2018-06-28T01:37:11.586Z,19.20
2018-06-28T01:38:13.837Z,19.20
2018-06-28T01:39:16.094Z,19.20
2018-06-28T01:40:18.436Z,19.20
2018-06-28T01:41:20.747Z,19.20
2018-06-28T01:43:35.463Z,19.20
2018-06-28T01:44:37.706Z,19.10
2018-06-28T01:45:39.951Z,19.10
2018-06-28T01:46:42.188Z,19.10
2018-06-28T01:47:44.425Z,19.10
2018-06-28T01:48:46.701Z,19.00
2018-06-28T01:50:51.214Z,19.00
2018-06-28T01:51:53.466Z,19.00
2018-06-28T01:52:55.793Z,19.00
2018-06-28T01:53:58.013Z,18.90
2018-06-28T01:55:00.263Z,18.90
2018-06-28T01:57:04.824Z,18.90
2018-06-28T01:58:07.071Z,18.90
2018-06-28T01:59:09.319Z,18.90
2018-06-28T02:00:11.581Z,18.90
2018-06-28T02:01:13.875Z,18.90
2018-06-28T02:02:16.214Z,18.80
2018-06-28T02:03:18.502Z,18.80
2018-06-28T02:04:20.758Z,18.80
2018-06-28T02:05:22.991Z,18.80
2018-06-28T02:06:25.247Z,18.80
2018-06-28T02:07:27.507Z,18.80
2018-06-28T02:08:29.780Z,18.80
2018-06-28T02:09:32.027Z,18.80
2018-06-28T02:10:34.391Z,18.80
2018-06-28T02:11:36.678Z,18.70
2018-06-28T02:12:38.946Z,18.80
2018-06-28T02:13:41.204Z,18.80
2018-06-28T02:14:43.973Z,18.70
2018-06-28T02:15:46.982Z,18.80
2018-06-28T02:16:49.282Z,18.80
2018-06-28T02:17:51.538Z,18.80
2018-06-28T02:18:53.762Z,18.70
2018-06-28T02:19:56.007Z,18.60
2018-06-28T02:20:58.268Z,18.60
2018-06-28T02:22:00.506Z,18.50
2018-06-28T02:23:02.802Z,18.50
2018-06-28T02:24:05.080Z,18.50
2018-06-28T02:25:07.368Z,18.50
2018-06-28T02:26:09.611Z,18.50
2018-06-28T02:27:11.923Z,18.40
2018-06-28T02:28:14.174Z,18.30
2018-06-28T02:29:16.510Z,18.40
2018-06-28T02:30:18.774Z,18.40
2018-06-28T02:31:21.071Z,18.40
2018-06-28T02:32:23.354Z,18.40
2018-06-28T02:33:25.632Z,18.40
2018-06-28T02:34:27.892Z,18.40
2018-06-28T02:35:30.147Z,18.40
2018-06-28T02:36:32.396Z,18.50
2018-06-28T02:37:35.026Z,18.40
2018-06-28T02:38:37.286Z,18.40
2018-06-28T02:39:39.554Z,18.40
2018-06-28T02:40:41.863Z,18.40
2018-06-28T02:41:44.107Z,18.40
2018-06-28T02:42:46.424Z,18.40
2018-06-28T02:43:48.694Z,18.40
2018-06-28T02:44:50.947Z,18.40
2018-06-28T02:45:53.215Z,18.30
2018-06-28T02:46:55.487Z,18.40
2018-06-28T02:47:57.758Z,18.30
2018-06-28T02:49:00.008Z,18.30
2018-06-28T02:50:02.330Z,18.30
2018-06-28T02:51:04.654Z,18.30
2018-06-28T02:52:06.955Z,18.30
2018-06-28T02:53:09.222Z,18.30
2018-06-28T02:54:11.471Z,18.40
2018-06-28T02:55:13.773Z,18.30
2018-06-28T02:56:16.038Z,18.30
2018-06-28T02:57:18.329Z,18.30
2018-06-28T02:58:20.570Z,18.30
2018-06-28T02:59:22.846Z,18.20
2018-06-28T03:00:25.091Z,18.20
2018-06-28T03:01:27.340Z,18.20
2018-06-28T03:02:29.613Z,18.10
2018-06-28T03:03:31.889Z,18.10
2018-06-28T03:04:34.267Z,18.10
2018-06-28T03:05:36.555Z,18.10
2018-06-28T03:06:39.206Z,18.10
2018-06-28T03:07:41.495Z,18.10
2018-06-28T03:08:43.751Z,18.10
2018-06-28T03:09:46.003Z,18.00
2018-06-28T03:10:48.326Z,18.00
2018-06-28T03:11:50.579Z,18.10
2018-06-28T03:12:52.813Z,18.00
2018-06-28T03:13:55.056Z,18.00
2018-06-28T03:14:57.331Z,18.00
2018-06-28T03:15:59.597Z,18.00
2018-06-28T03:18:04.146Z,18.00
2018-06-28T03:19:06.461Z,18.10
2018-06-28T03:20:08.734Z,18.00
2018-06-28T03:21:11.091Z,18.00
2018-06-28T03:22:13.366Z,18.00
2018-06-28T03:23:15.610Z,18.00
2018-06-28T03:24:18.253Z,18.00
2018-06-28T03:25:20.494Z,17.90
2018-06-28T03:26:22.756Z,18.00
2018-06-28T03:27:25.011Z,17.90
2018-06-28T03:28:27.295Z,18.00
2018-06-28T03:29:29.575Z,17.90
2018-06-28T03:30:31.842Z,17.90
2018-06-28T03:31:34.135Z,17.90
2018-06-28T03:32:36.435Z,17.90
2018-06-28T03:33:38.696Z,17.90
2018-06-28T03:34:41.051Z,17.90
2018-06-28T03:35:43.360Z,17.90
2018-06-28T03:36:45.717Z,17.90
2018-06-28T03:37:48.188Z,17.90
2018-06-28T03:38:50.499Z,17.90
2018-06-28T03:39:52.806Z,17.90
2018-06-28T03:40:55.129Z,18.00
2018-06-28T03:41:57.433Z,17.80
2018-06-28T03:42:59.680Z,17.80
2018-06-28T03:44:02.239Z,17.80
2018-06-28T03:45:05.256Z,17.80
2018-06-28T03:46:07.577Z,17.80
2018-06-28T03:47:09.899Z,17.80
2018-06-28T03:48:12.155Z,17.80
2018-06-28T03:49:14.486Z,17.80
2018-06-28T03:50:16.782Z,17.70
2018-06-28T03:51:19.111Z,17.80
2018-06-28T03:52:21.415Z,17.80
2018-06-28T03:53:23.691Z,17.80
2018-06-28T03:54:26.191Z,17.80
2018-06-28T03:55:28.455Z,17.80
2018-06-28T03:56:30.727Z,17.80
2018-06-28T03:57:33.064Z,17.80
2018-06-28T03:58:35.298Z,17.80
2018-06-28T03:59:37.574Z,17.80
2018-06-28T04:00:39.839Z,17.80
2018-06-28T04:01:42.110Z,17.90
2018-06-28T04:02:44.386Z,17.80
2018-06-28T04:03:46.675Z,17.80
2018-06-28T04:04:49.899Z,17.80
2018-06-28T04:05:52.683Z,17.70
2018-06-28T04:06:55.016Z,17.70
2018-06-28T04:07:57.882Z,17.70
2018-06-28T04:09:00.227Z,17.70
2018-06-28T04:10:02.715Z,17.70
2018-06-28T04:11:05.191Z,17.70
2018-06-28T04:12:07.627Z,17.70
2018-06-28T04:13:10.550Z,17.60
2018-06-28T04:14:12.914Z,17.60
2018-06-28T04:15:15.764Z,17.60
2018-06-28T04:16:18.074Z,17.70
2018-06-28T04:17:20.423Z,17.70
2018-06-28T04:18:22.696Z,17.70
2018-06-28T04:19:25.016Z,17.70
2018-06-28T04:20:27.399Z,17.80
2018-06-28T04:22:32.047Z,17.70
2018-06-28T04:23:34.350Z,17.70
2018-06-28T04:25:38.956Z,17.70
2018-06-28T04:26:41.255Z,17.70
2018-06-28T04:27:43.526Z,17.70
2018-06-28T04:29:48.168Z,17.70
2018-06-28T04:30:50.467Z,17.70
2018-06-28T04:31:52.773Z,17.70
2018-06-28T04:32:55.067Z,17.70
2018-06-28T04:33:57.444Z,17.80
2018-06-28T04:34:59.738Z,17.70
2018-06-28T04:37:04.438Z,17.80
2018-06-28T04:38:06.722Z,17.80
2018-06-28T04:39:10.686Z,17.80
2018-06-28T04:40:12.947Z,17.80
2018-06-28T04:41:15.271Z,17.80
2018-06-28T04:42:17.538Z,17.80
2018-06-28T04:43:19.803Z,17.80
2018-06-28T04:44:22.087Z,17.90
2018-06-28T04:45:24.367Z,17.90
2018-06-28T04:46:26.636Z,17.90
2018-06-28T04:47:28.902Z,17.90
2018-06-28T04:48:31.181Z,17.90
2018-06-28T04:49:33.459Z,17.90
2018-06-28T04:50:35.837Z,17.90
2018-06-28T04:51:38.171Z,17.90
2018-06-28T04:52:40.442Z,17.90
2018-06-28T04:53:42.863Z,17.90
2018-06-28T04:54:45.123Z,17.90
2018-06-28T04:55:47.403Z,17.90
2018-06-28T04:56:49.775Z,17.90
2018-06-28T04:57:52.068Z,18.00
2018-06-28T04:58:54.358Z,18.00
2018-06-28T04:59:56.647Z,18.00
2018-06-28T05:00:58.939Z,18.00
2018-06-28T05:02:01.263Z,18.00
2018-06-28T05:03:03.590Z,18.10
2018-06-28T05:04:08.238Z,18.10
2018-06-28T05:05:10.562Z,18.10
2018-06-28T05:06:13.649Z,18.20
2018-06-28T05:07:17.968Z,18.20
2018-06-28T05:08:21.102Z,18.20
2018-06-28T05:09:24.390Z,18.30
2018-06-28T05:11:29.343Z,18.30
2018-06-28T05:12:31.614Z,18.30
2018-06-28T05:13:34.003Z,18.30
2018-06-28T05:15:40.523Z,18.40
2018-06-28T05:16:43.031Z,18.50
2018-06-28T05:17:45.518Z,18.50
2018-06-28T05:18:48.117Z,18.50
2018-06-28T05:19:50.433Z,18.60
2018-06-28T05:20:52.683Z,18.60
2018-06-28T05:21:54.943Z,18.60
2018-06-28T05:22:57.183Z,18.60
2018-06-28T05:23:59.647Z,18.60
2018-06-28T05:25:01.887Z,18.60
2018-06-28T05:26:04.405Z,18.60
2018-06-28T05:28:08.914Z,18.70
2018-06-28T05:29:11.246Z,18.70
2018-06-28T05:30:13.412Z,18.80
2018-06-28T05:31:15.687Z,18.70
2018-06-28T05:32:17.974Z,18.70
2018-06-28T05:34:22.589Z,18.80
2018-06-28T05:35:24.855Z,18.80
2018-06-28T05:36:27.146Z,18.80
2018-06-28T05:37:29.440Z,18.80
2018-06-28T05:38:31.710Z,18.80
2018-06-28T05:39:33.969Z,18.80
2018-06-28T05:40:36.210Z,18.90
2018-06-28T05:41:38.626Z,18.90
2018-06-28T05:42:40.918Z,19.00
2018-06-28T05:43:43.158Z,19.10
2018-06-28T05:44:45.381Z,19.00
2018-06-28T05:46:50.980Z,19.20
2018-06-28T05:47:53.463Z,19.20
2018-06-28T05:48:55.720Z,19.20
2018-06-28T05:49:57.968Z,19.30
2018-06-28T05:51:00.261Z,19.30
2018-06-28T05:52:02.570Z,19.40
2018-06-28T05:54:13.802Z,19.50
2018-06-28T05:55:16.066Z,19.50
2018-06-28T05:56:18.299Z,19.60
2018-06-28T05:57:20.626Z,19.70
2018-06-28T05:58:22.862Z,19.70
2018-06-28T06:00:27.351Z,19.90
2018-06-28T06:01:29.759Z,20.00
2018-06-28T06:02:31.963Z,20.00
2018-06-28T06:03:34.323Z,20.00
2018-06-28T06:04:36.587Z,20.10
2018-06-28T06:05:38.894Z,20.20
2018-06-28T06:07:43.470Z,20.30
2018-06-28T06:08:45.775Z,20.40
2018-06-28T06:09:48.070Z,20.40
2018-06-28T06:10:50.394Z,20.60
2018-06-28T06:11:52.708Z,20.50
2018-06-28T06:12:55.016Z,20.50
2018-06-28T06:14:59.567Z,20.70
2018-06-28T06:16:01.899Z,20.70
2018-06-28T06:17:04.214Z,20.70
2018-06-28T06:18:06.542Z,20.80
2018-06-28T06:19:08.799Z,20.80
2018-06-28T06:20:11.076Z,20.80
2018-06-28T06:21:13.334Z,20.90
2018-06-28T06:22:15.570Z,21.00
2018-06-28T06:23:17.814Z,21.00
2018-06-28T06:24:20.143Z,21.10
2018-06-28T06:25:22.439Z,21.20
2018-06-28T06:27:26.983Z,21.30
2018-06-28T06:28:29.271Z,21.40
2018-06-28T06:29:31.564Z,21.50
2018-06-28T06:30:33.871Z,21.60
2018-06-28T06:31:36.150Z,21.70
2018-06-28T06:32:38.534Z,21.80
2018-06-28T06:33:40.774Z,21.80
2018-06-28T06:34:43.040Z,22.00
2018-06-28T06:35:45.493Z,22.10
2018-06-28T06:36:47.778Z,22.10
2018-06-28T06:37:50.738Z,22.30
2018-06-28T06:38:53.007Z,22.10
2018-06-28T06:39:55.303Z,22.30
2018-06-28T06:40:57.615Z,22.40
2018-06-28T06:41:59.882Z,22.30
2018-06-28T06:43:02.175Z,22.40
2018-06-28T06:44:05.106Z,22.40
2018-06-28T06:45:07.783Z,22.40
2018-06-28T06:46:10.083Z,22.40
2018-06-28T06:47:12.357Z,22.50
2018-06-28T06:49:16.879Z,22.60
2018-06-28T06:50:19.139Z,22.70
2018-06-28T06:52:23.692Z,22.70
2018-06-28T06:53:25.916Z,22.70
2018-06-28T06:55:30.418Z,22.70
2018-06-28T06:56:32.669Z,22.80
2018-06-28T06:57:34.949Z,22.80
2018-06-28T06:58:37.199Z,22.80
2018-06-28T06:59:39.439Z,22.80
2018-06-28T07:00:41.664Z,22.70
2018-06-28T07:01:43.940Z,22.70
2018-06-28T07:02:46.187Z,22.70
2018-06-28T07:03:48.518Z,22.70
2018-06-28T07:04:51.419Z,22.80
2018-06-28T07:05:53.651Z,22.80
2018-06-28T07:07:58.099Z,22.90
2018-06-28T07:09:00.341Z,22.90
2018-06-28T07:10:02.608Z,22.90
2018-06-28T07:11:04.990Z,22.90
2018-06-28T07:12:07.247Z,22.80
2018-06-28T07:13:09.477Z,22.90
2018-06-28T07:14:11.809Z,22.80
2018-06-28T07:15:14.049Z,22.80
2018-06-28T07:16:16.484Z,22.90
2018-06-28T07:18:27.694Z,22.90
2018-06-28T07:19:29.971Z,22.90
2018-06-28T07:20:32.239Z,22.90
2018-06-28T07:21:34.483Z,23.00
2018-06-28T07:22:36.739Z,23.00
2018-06-28T07:23:39.002Z,23.00
2018-06-28T07:24:41.292Z,23.00
2018-06-28T07:25:43.681Z,23.10
2018-06-28T07:26:46.078Z,23.00
2018-06-28T07:27:48.218Z,22.90
2018-06-28T07:28:50.607Z,22.90
2018-06-28T07:29:52.876Z,22.90
2018-06-28T07:30:55.114Z,22.90
2018-06-28T07:31:57.380Z,23.00
2018-06-28T07:32:59.659Z,23.10
2018-06-28T07:34:01.951Z,23.00
2018-06-28T07:35:04.239Z,23.00
2018-06-28T07:36:06.577Z,23.10
2018-06-28T07:37:08.858Z,23.10
2018-06-28T07:38:11.191Z,23.10
2018-06-28T07:39:13.554Z,23.10
2018-06-28T07:40:15.892Z,23.10
2018-06-28T07:42:20.551Z,23.10
2018-06-28T07:43:22.886Z,23.00
2018-06-28T07:44:25.163Z,23.10
2018-06-28T07:45:27.515Z,23.10
2018-06-28T07:46:29.867Z,23.10
2018-06-28T07:47:32.154Z,23.10
2018-06-28T07:48:34.497Z,23.10
2018-06-28T07:50:39.066Z,23.20
2018-06-28T07:51:41.392Z,23.20
2018-06-28T07:52:43.772Z,23.30
2018-06-28T07:53:46.102Z,23.40
2018-06-28T07:54:48.413Z,23.40
2018-06-28T07:55:50.735Z,23.50
2018-06-28T07:56:53.057Z,23.50
2018-06-28T07:57:55.351Z,23.50
2018-06-28T07:58:57.623Z,23.60
2018-06-28T07:59:59.976Z,23.70
2018-06-28T08:01:02.273Z,23.70
2018-06-28T08:02:04.591Z,23.60
2018-06-28T08:04:09.393Z,23.60
2018-06-28T08:05:11.559Z,23.70
2018-06-28T08:06:13.847Z,23.80
2018-06-28T08:07:16.144Z,23.80
2018-06-28T08:08:18.430Z,23.90
2018-06-28T08:09:20.731Z,23.90
2018-06-28T08:10:22.966Z,23.90
2018-06-28T08:11:25.229Z,24.00
2018-06-28T08:13:30.002Z,24.10
2018-06-28T08:14:32.202Z,24.10
2018-06-28T08:15:34.434Z,24.00
2018-06-28T08:16:36.645Z,23.90
2018-06-28T08:17:38.962Z,24.10
2018-06-28T08:18:41.209Z,24.00
2018-06-28T08:19:43.438Z,24.10
2018-06-28T08:20:45.628Z,24.10
2018-06-28T08:21:47.994Z,24.10
2018-06-28T08:22:50.228Z,24.10
2018-06-28T08:24:54.850Z,24.10
2018-06-28T08:25:57.127Z,24.10
2018-06-28T08:26:59.519Z,24.10
2018-06-28T08:28:01.703Z,24.10
2018-06-28T08:29:04.056Z,24.20
2018-06-28T08:30:06.274Z,24.20
2018-06-28T08:31:08.583Z,24.20
2018-06-28T08:33:13.066Z,24.30
2018-06-28T08:34:15.291Z,24.30
2018-06-28T08:35:17.551Z,24.30
2018-06-28T08:36:19.774Z,24.40
2018-06-28T08:38:24.289Z,24.50
2018-06-28T08:39:26.734Z,24.50
2018-06-28T08:40:28.968Z,24.50
2018-06-28T08:41:31.182Z,24.50
2018-06-28T08:42:33.362Z,24.40
2018-06-28T08:43:35.562Z,24.40
2018-06-28T08:44:37.847Z,24.40
2018-06-28T08:45:40.083Z,24.40
2018-06-28T08:46:42.287Z,24.30
2018-06-28T08:47:44.499Z,24.30
2018-06-28T08:48:46.693Z,24.20
2018-06-28T08:49:48.887Z,24.20
2018-06-28T08:51:53.389Z,24.20
2018-06-28T08:52:55.611Z,24.30
2018-06-28T08:53:57.854Z,24.20
2018-06-28T08:55:00.129Z,24.20
2018-06-28T08:56:02.433Z,24.10
2018-06-28T08:57:04.682Z,24.10
2018-06-28T08:58:06.949Z,24.10
2018-06-28T08:59:09.137Z,24.10
2018-06-28T09:00:11.427Z,24.10
2018-06-28T09:01:13.678Z,24.10
2018-06-28T09:02:15.956Z,24.10
2018-06-28T09:03:18.158Z,24.10
2018-06-28T09:04:20.381Z,24.10
2018-06-28T09:05:22.612Z,24.10
2018-06-28T09:06:24.863Z,24.10
2018-06-28T09:07:27.094Z,24.10
2018-06-28T09:08:29.338Z,24.10
2018-06-28T09:10:33.791Z,24.10
2018-06-28T09:11:36.030Z,24.10
2018-06-28T09:12:38.245Z,24.20
2018-06-28T09:13:40.470Z,24.20
2018-06-28T09:14:42.690Z,24.20
2018-06-28T09:15:44.934Z,24.30
2018-06-28T09:16:47.178Z,24.30
2018-06-28T09:17:49.412Z,24.30
2018-06-28T09:18:51.710Z,24.30
2018-06-28T09:20:56.219Z,24.30
2018-06-28T09:21:58.443Z,24.40
2018-06-28T09:23:00.709Z,24.30
2018-06-28T09:24:02.965Z,24.40
2018-06-28T09:25:05.511Z,24.40
2018-06-28T09:26:07.746Z,24.40
2018-06-28T09:27:09.954Z,24.40
2018-06-28T09:28:12.603Z,24.40
2018-06-28T09:29:14.830Z,24.50
2018-06-28T09:30:17.030Z,24.50
2018-06-28T09:31:19.278Z,24.60
2018-06-28T09:32:21.511Z,24.60
2018-06-28T09:34:25.983Z,24.70
2018-06-28T09:35:28.182Z,24.70
2018-06-28T09:36:31.040Z,24.70
2018-06-28T09:37:33.321Z,24.80
2018-06-28T09:39:37.757Z,24.70
2018-06-28T09:40:39.975Z,24.60
2018-06-28T09:41:42.210Z,24.60
2018-06-28T09:42:44.449Z,24.60
2018-06-28T09:43:46.715Z,24.60
2018-06-28T09:44:48.923Z,24.60
2018-06-28T09:45:51.129Z,24.70
2018-06-28T09:46:53.413Z,24.70
2018-06-28T09:47:55.626Z,24.70
2018-06-28T09:48:57.862Z,24.60
2018-06-28T09:50:00.111Z,24.60
2018-06-28T09:51:02.350Z,24.60
2018-06-28T09:52:04.665Z,24.70
2018-06-28T09:53:06.875Z,24.80
2018-06-28T09:54:09.118Z,24.90
2018-06-28T09:55:11.335Z,25.00
2018-06-28T09:56:13.538Z,25.10
2018-06-28T09:57:15.785Z,25.20
2018-06-28T09:58:17.994Z,25.20
2018-06-28T09:59:20.209Z,25.30
2018-06-28T10:00:28.233Z,25.30
2018-06-28T10:01:30.386Z,25.30
2018-06-28T10:02:32.584Z,25.40
2018-06-28T10:03:34.806Z,25.40
2018-06-28T10:04:37.050Z,25.30
2018-06-28T10:05:39.281Z,25.40
2018-06-28T10:06:41.502Z,25.40
2018-06-28T10:07:43.708Z,25.40
2018-06-28T10:08:45.919Z,25.40
2018-06-28T10:09:48.152Z,25.50
2018-06-28T10:10:50.395Z,25.40
2018-06-28T10:11:52.594Z,25.40
2018-06-28T10:12:54.819Z,25.40
2018-06-28T10:13:57.056Z,25.30
2018-06-28T10:14:59.257Z,25.30
2018-06-28T10:16:01.477Z,25.30
2018-06-28T10:17:04.072Z,25.40
2018-06-28T10:18:06.107Z,25.40
2018-06-28T10:20:10.525Z,25.40
2018-06-28T10:21:12.778Z,25.50
2018-06-28T10:22:15.016Z,25.50
2018-06-28T10:23:17.252Z,25.50
2018-06-28T10:25:21.795Z,25.50
2018-06-28T10:26:24.023Z,25.50
2018-06-28T10:28:28.506Z,25.50
2018-06-28T10:29:30.761Z,25.40
2018-06-28T10:30:33.009Z,25.40
2018-06-28T10:31:35.211Z,25.30
2018-06-28T10:32:37.477Z,25.30
2018-06-28T10:33:39.701Z,25.20
2018-06-28T10:34:41.918Z,25.20
2018-06-28T10:35:44.170Z,25.20
2018-06-28T10:36:46.432Z,25.10
2018-06-28T10:38:50.894Z,25.10
2018-06-28T10:39:53.150Z,25.00
2018-06-28T10:41:57.686Z,25.00
2018-06-28T10:42:59.918Z,24.90
2018-06-28T10:44:02.399Z,25.00
2018-06-28T10:45:04.651Z,25.00
2018-06-28T10:46:06.911Z,24.90
2018-06-28T10:47:09.146Z,24.90
2018-06-28T10:48:11.370Z,24.90
2018-06-28T10:49:13.604Z,24.90
2018-06-28T10:50:15.858Z,24.80
2018-06-28T10:51:18.201Z,24.80
2018-06-28T10:52:20.545Z,24.80
2018-06-28T10:53:22.780Z,24.80
2018-06-28T10:54:25.070Z,24.70
2018-06-28T10:55:27.323Z,24.70
2018-06-28T10:56:29.633Z,24.60
2018-06-28T10:57:31.861Z,24.60
2018-06-28T10:58:34.101Z,24.50
2018-06-28T10:59:36.380Z,24.50
2018-06-28T11:00:38.592Z,24.50
2018-06-28T11:01:41.032Z,24.50
2018-06-28T11:02:43.206Z,24.30
2018-06-28T11:03:45.454Z,24.40
2018-06-28T11:04:47.683Z,24.40
2018-06-28T11:05:49.917Z,24.30
2018-06-28T11:06:52.760Z,24.30
2018-06-28T11:07:55.022Z,24.20
2018-06-28T11:08:57.298Z,24.10
2018-06-28T11:09:59.524Z,24.10
2018-06-28T11:11:01.795Z,24.00
2018-06-28T11:12:04.102Z,23.90
2018-06-28T11:13:06.344Z,23.90
2018-06-28T11:15:10.840Z,23.90
2018-06-28T11:16:13.048Z,23.80
2018-06-28T11:17:15.293Z,23.80
2018-06-28T11:18:24.486Z,23.80
2018-06-28T11:19:26.731Z,23.90
2018-06-28T11:20:29.139Z,23.80
2018-06-28T11:21:31.519Z,23.70
2018-06-28T11:22:33.726Z,23.70
2018-06-28T11:23:35.971Z,23.70
2018-06-28T11:24:38.199Z,23.70
2018-06-28T11:25:40.444Z,23.60
2018-06-28T11:26:42.667Z,23.60
2018-06-28T11:27:44.876Z,23.60
2018-06-28T11:28:47.094Z,23.60
2018-06-28T11:29:49.331Z,23.60
2018-06-28T11:30:51.567Z,23.60
2018-06-28T11:31:53.827Z,23.50
2018-06-28T11:32:56.043Z,23.50
2018-06-28T11:33:58.364Z,23.40
2018-06-28T11:35:00.562Z,23.50
2018-06-28T11:36:02.848Z,23.50
2018-06-28T11:37:05.262Z,23.40
2018-06-28T11:38:07.525Z,23.40
2018-06-28T11:39:10.574Z,23.40
2018-06-28T11:40:12.874Z,23.40
2018-06-28T11:41:15.146Z,23.40
2018-06-28T11:42:17.419Z,23.40
2018-06-28T11:43:19.658Z,23.40
2018-06-28T11:44:21.898Z,23.40
2018-06-28T11:45:24.273Z,23.40
2018-06-28T11:46:26.546Z,23.40
2018-06-28T11:48:31.066Z,23.40
2018-06-28T11:49:40.066Z,23.40
2018-06-28T11:50:42.323Z,23.50
2018-06-28T11:51:44.614Z,23.40
2018-06-28T11:52:46.941Z,23.40
2018-06-28T11:53:49.169Z,23.40
2018-06-28T11:54:51.427Z,23.40
2018-06-28T11:55:53.805Z,23.30
2018-06-28T11:56:56.101Z,23.40
2018-06-28T11:57:58.404Z,23.40
2018-06-28T11:59:00.907Z,23.40
2018-06-28T12:00:03.734Z,23.40
2018-06-28T12:01:06.015Z,23.40
2018-06-28T12:02:08.262Z,23.40
2018-06-28T12:03:10.502Z,23.40
2018-06-28T12:05:14.979Z,23.30
2018-06-28T12:06:17.318Z,23.30
2018-06-28T12:07:19.552Z,23.30
2018-06-28T12:08:21.895Z,23.20
2018-06-28T12:09:31.100Z,23.30
2018-06-28T12:10:33.338Z,23.20
2018-06-28T12:11:35.603Z,23.30
2018-06-28T12:12:37.819Z,23.30
2018-06-28T12:13:40.094Z,23.20
2018-06-28T12:14:42.343Z,23.20
2018-06-28T12:15:44.594Z,23.20
2018-06-28T12:16:46.867Z,23.20
2018-06-28T12:17:49.932Z,23.20
2018-06-28T12:19:54.759Z,23.20
2018-06-28T12:20:56.970Z,23.20
2018-06-28T12:21:59.222Z,23.20
2018-06-28T12:23:01.578Z,23.20
2018-06-28T12:24:03.842Z,23.30
2018-06-28T12:25:06.195Z,23.30
2018-06-28T12:26:08.431Z,23.30
2018-06-28T12:27:10.744Z,23.30
2018-06-28T12:28:12.977Z,23.30
2018-06-28T12:29:15.350Z,23.30
2018-06-28T12:30:17.598Z,23.30
2018-06-28T12:31:19.895Z,23.20
2018-06-28T12:32:22.288Z,23.30
2018-06-28T12:33:24.600Z,23.30
2018-06-28T12:34:27.018Z,23.40
2018-06-28T12:35:29.290Z,23.40
2018-06-28T12:36:31.627Z,23.50
2018-06-28T12:37:33.927Z,23.50
2018-06-28T12:38:36.232Z,23.50
2018-06-28T12:39:38.680Z,23.60
2018-06-28T12:40:40.914Z,23.70
2018-06-28T12:41:43.271Z,23.70
2018-06-28T12:42:45.507Z,23.70
2018-06-28T12:43:47.881Z,23.80
2018-06-28T12:44:50.252Z,23.80
2018-06-28T12:45:52.594Z,23.80
2018-06-28T12:49:01.950Z,23.80
2018-06-28T12:50:04.961Z,23.80
2018-06-28T12:51:07.306Z,23.70
2018-06-28T12:52:21.034Z,23.70
2018-06-28T12:53:23.378Z,23.60
2018-06-28T12:54:25.827Z,23.50
2018-06-28T12:55:39.822Z,23.50
2018-06-28T12:56:43.429Z,23.50
2018-06-28T12:57:46.367Z,23.50
2018-06-28T12:59:52.635Z,23.40
2018-06-28T13:00:54.884Z,23.50
2018-06-28T13:01:57.133Z,23.40
2018-06-28T13:03:00.133Z,23.40
2018-06-28T13:04:02.526Z,23.40
2018-06-28T13:05:04.975Z,23.40
2018-06-28T13:06:07.260Z,23.40
2018-06-28T13:07:09.717Z,23.40
2018-06-28T13:08:11.946Z,23.40
2018-06-28T13:09:16.340Z,23.40
2018-06-28T13:10:18.673Z,23.40
2018-06-28T13:11:21.306Z,23.30
2018-06-28T13:12:23.526Z,23.30
2018-06-28T13:13:25.771Z,23.20
2018-06-28T13:14:28.034Z,23.20
2018-06-28T13:15:30.256Z,23.20
2018-06-28T13:16:32.554Z,23.20
2018-06-28T13:17:34.809Z,23.20
2018-06-28T13:18:37.142Z,23.30
2018-06-28T13:20:41.600Z,23.30
2018-06-28T13:21:44.039Z,23.20
2018-06-28T13:22:46.343Z,23.20
2018-06-28T13:23:48.718Z,23.20
2018-06-28T13:24:51.081Z,23.20
2018-06-28T13:25:53.545Z,23.10
2018-06-28T13:26:55.871Z,23.10
2018-06-28T13:27:58.359Z,23.10
2018-06-28T13:29:00.622Z,23.10
2018-06-28T13:30:04.565Z,23.10
2018-06-28T13:31:07.055Z,23.20
2018-06-28T13:32:09.315Z,23.20
2018-06-28T13:33:11.626Z,23.10
2018-06-28T13:34:13.866Z,23.10
2018-06-28T13:35:16.245Z,23.10
2018-06-28T13:36:18.743Z,23.10
2018-06-28T13:37:21.020Z,23.10
2018-06-28T13:38:23.731Z,23.10
2018-06-28T13:39:26.143Z,23.10
2018-06-28T13:41:31.460Z,23.00
2018-06-28T13:42:33.348Z,23.00
2018-06-28T13:43:35.650Z,23.00
2018-06-28T13:44:37.877Z,23.00
2018-06-28T13:45:40.146Z,23.00
2018-06-28T13:46:42.403Z,23.00
2018-06-28T13:47:44.649Z,23.00
2018-06-28T13:48:46.890Z,23.00
2018-06-28T13:49:49.175Z,23.00
2018-06-28T13:50:52.028Z,22.90
2018-06-28T13:51:54.281Z,23.00
2018-06-28T13:52:57.258Z,23.10
2018-06-28T13:53:59.525Z,23.10
2018-06-28T13:56:04.393Z,23.00
2018-06-28T13:57:06.694Z,23.00
2018-06-28T13:58:08.967Z,23.00
2018-06-28T13:59:11.214Z,23.00
2018-06-28T14:00:13.519Z,23.00
2018-06-28T14:01:15.742Z,23.00
2018-06-28T14:02:18.026Z,23.00
2018-06-28T14:03:20.381Z,23.00
2018-06-28T14:04:22.552Z,23.00
2018-06-28T14:05:24.859Z,23.00
2018-06-28T14:06:27.143Z,23.10
2018-06-28T14:07:29.447Z,23.10
2018-06-28T14:08:31.749Z,23.20
2018-06-28T14:10:36.599Z,23.30
2018-06-28T14:11:38.923Z,23.40
2018-06-28T14:12:41.142Z,23.50
2018-06-28T14:13:43.414Z,23.50
2018-06-28T14:14:45.710Z,23.60
2018-06-28T14:15:47.982Z,23.60
2018-06-28T14:16:50.233Z,23.60
2018-06-28T14:17:52.786Z,23.60
2018-06-28T14:18:55.222Z,23.60
2018-06-28T14:19:57.494Z,23.60
2018-06-28T14:20:59.768Z,23.60
2018-06-28T14:22:02.096Z,23.60
2018-06-28T14:23:04.298Z,23.60
2018-06-28T14:24:06.621Z,23.50